Time;durP1;ratioP1;P1;durP2;ratioP2;P2;SDS_P1;SDS_P2;PMS_P1;PMS_P2;Temp;Humidity;BMP_temperature;BMP_pressure;BME280_temperature;BME280_humidity;BME280_pressure;Samples;Min_cycle;Max_cycle;Signal;HPM_P1;HPM_P2
2024/01/20 00:00:51;;;;;;;36.27;18.63;;;;;;;;;;5261089;28;20020;-75
2024/01/20 00:03:22;;;;;;;34.13;17.17;;;;;;;;;;5259847;28;20033;-74
2024/01/20 00:05:54;;;;;;;36.97;17.57;;;;;;;;;;5261144;28;20017;-74
2024/01/20 00:08:25;;;;;;;35.90;17.50;;;;;;;;;;5260360;28;20033;-74
2024/01/20 00:10:56;;;;;;;36.20;18.53;;;;;;;;;;5260204;28;20020;-74
2024/01/20 00:13:27;;;;;;;37.60;17.43;;;;;;;;;;5260811;28;20017;-74
2024/01/20 00:15:58;;;;;;;36.07;17.73;;;;;;;;;;5260798;28;20032;-74
2024/01/20 00:18:29;;;;;;;33.87;17.00;;;;;;;;;;5259569;28;20542;-74
2024/01/20 00:21:01;;;;;;;34.90;17.30;;;;;;;;;;5260887;28;20380;-75
2024/01/20 00:23:32;;;;;;;36.37;17.53;;;;;;;;;;5260697;28;20068;-74
2024/01/20 00:26:03;;;;;;;38.57;18.37;;;;;;;;;;5259918;28;20021;-74
2024/01/20 00:28:34;;;;;;;35.20;17.33;;;;;;;;;;5260513;28;20024;-74
2024/01/20 00:31:05;;;;;;;32.37;16.23;;;;;;;;;;5260571;28;20017;-74
2024/01/20 00:33:37;;;;;;;30.23;16.20;;;;;;;;;;5259778;28;20052;-74
2024/01/20 00:36:08;;;;;;;35.70;17.43;;;;;;;;;;5260434;28;20172;-74
2024/01/20 00:38:41;;;;;;;35.70;16.47;;;;;;;;;;5259685;28;20472;-73
2024/01/20 00:41:13;;;;;;;37.80;18.80;;;;;;;;;;5260382;28;20016;-74
2024/01/20 00:43:44;;;;;;;32.97;16.07;;;;;;;;;;5261191;28;20033;-73
2024/01/20 00:46:15;;;;;;;34.30;16.93;;;;;;;;;;5264075;28;20365;-74
2024/01/20 00:48:46;;;;;;;33.70;16.13;;;;;;;;;;5264572;28;20024;-73
2024/01/20 00:51:18;;;;;;;32.67;16.60;;;;;;;;;;5264510;28;20029;-73
2024/01/20 00:53:49;;;;;;;31.97;12.73;;;;;;;;;;5263837;28;20430;-74
2024/01/20 00:56:20;;;;;;;32.57;16.33;;;;;;;;;;5264368;28;20031;-74
2024/01/20 00:58:51;;;;;;;33.60;15.23;;;;;;;;;;5264763;28;20029;-74
2024/01/20 01:01:22;;;;;;;34.33;16.17;;;;;;;;;;5263587;28;20028;-74
2024/01/20 01:03:54;;;;;;;29.43;14.40;;;;;;;;;;5264672;28;20055;-74
2024/01/20 01:06:25;;;;;;;34.10;15.97;;;;;;;;;;5263341;28;20024;-74
2024/01/20 01:08:56;;;;;;;31.47;16.27;;;;;;;;;;5264835;28;20043;-74
2024/01/20 01:11:28;;;;;;;36.03;15.57;;;;;;;;;;5264114;28;20019;-74
2024/01/20 01:13:59;;;;;;;32.70;17.17;;;;;;;;;;5263537;28;20537;-74
2024/01/20 01:16:30;;;;;;;35.07;17.00;;;;;;;;;;5264246;28;20025;-74
2024/01/20 01:19:01;;;;;;;28.87;14.10;;;;;;;;;;5263882;28;20017;-74
2024/01/20 01:21:32;;;;;;;30.17;15.37;;;;;;;;;;5263405;28;20087;-74
2024/01/20 01:24:05;;;;;;;35.47;15.70;;;;;;;;;;5264176;28;20104;-74
2024/01/20 01:26:37;;;;;;;38.23;16.33;;;;;;;;;;5263692;28;20234;-73
2024/01/20 01:29:08;;;;;;;30.27;14.53;;;;;;;;;;5262990;28;20379;-74
2024/01/20 01:31:39;;;;;;;32.87;16.13;;;;;;;;;;5263766;28;20023;-73
2024/01/20 01:34:11;;;;;;;27.70;14.57;;;;;;;;;;5264118;28;20033;-73
2024/01/20 01:36:42;;;;;;;31.37;15.23;;;;;;;;;;5262910;28;20021;-74
2024/01/20 01:39:16;;;;;;;30.97;15.60;;;;;;;;;;5263859;28;20017;-74
2024/01/20 01:41:47;;;;;;;27.93;14.87;;;;;;;;;;5262738;28;20036;-74
2024/01/20 01:44:19;;;;;;;29.30;14.13;;;;;;;;;;5263706;28;20029;-73
2024/01/20 01:46:50;;;;;;;28.00;13.40;;;;;;;;;;5263514;28;20028;-74
2024/01/20 01:49:22;;;;;;;30.03;14.00;;;;;;;;;;5262376;28;20017;-74
2024/01/20 01:51:53;;;;;;;32.30;15.80;;;;;;;;;;5263342;28;20041;-74
2024/01/20 01:54:24;;;;;;;33.60;15.97;;;;;;;;;;5263139;28;20112;-74
2024/01/20 01:56:56;;;;;;;27.60;15.23;;;;;;;;;;5262021;28;20354;-74
2024/01/20 01:59:27;;;;;;;31.17;14.77;;;;;;;;;;5263339;28;20066;-74
2024/01/20 02:01:59;;;;;;;29.47;15.20;;;;;;;;;;5263480;28;20124;-74
2024/01/20 02:04:30;;;;;;;28.23;15.27;;;;;;;;;;5262256;28;20041;-74
2024/01/20 02:07:01;;;;;;;28.73;15.07;;;;;;;;;;5262995;28;20017;-74
2024/01/20 02:09:33;;;;;;;27.23;14.70;;;;;;;;;;5262877;28;20457;-74
2024/01/20 02:12:04;;;;;;;31.57;16.47;;;;;;;;;;5261807;28;20452;-74
2024/01/20 02:14:35;;;;;;;27.10;15.17;;;;;;;;;;5262821;28;20044;-74
2024/01/20 02:17:06;;;;;;;27.03;14.00;;;;;;;;;;5262096;28;20013;-74
2024/01/20 02:19:38;;;;;;;29.63;14.87;;;;;;;;;;5262725;28;20024;-74
2024/01/20 02:22:14;;;;;;;31.50;15.23;;;;;;;;;;5262678;28;20032;-74
2024/01/20 02:24:46;;;;;;;32.30;18.43;;;;;;;;;;5262087;28;20040;-74
2024/01/20 02:27:17;;;;;;;31.43;15.13;;;;;;;;;;5262904;28;20410;-74
2024/01/20 02:29:49;;;;;;;31.67;15.33;;;;;;;;;;5262636;28;20039;-74
2024/01/20 02:32:20;;;;;;;29.33;15.53;;;;;;;;;;5262456;28;20052;-75
2024/01/20 02:34:51;;;;;;;29.87;15.47;;;;;;;;;;5262601;28;20147;-74
2024/01/20 02:37:22;;;;;;;29.87;16.13;;;;;;;;;;5262097;28;20036;-74
2024/01/20 02:39:53;;;;;;;28.73;13.97;;;;;;;;;;5261988;28;20013;-74
2024/01/20 02:42:24;;;;;;;30.13;15.57;;;;;;;;;;5261887;28;20053;-74
2024/01/20 02:44:56;;;;;;;30.63;15.60;;;;;;;;;;5261947;28;20040;-74
2024/01/20 02:47:27;;;;;;;33.47;16.07;;;;;;;;;;5261949;28;20049;-74
2024/01/20 02:49:58;;;;;;;31.67;16.57;;;;;;;;;;5262230;28;20025;-73
2024/01/20 02:52:29;;;;;;;24.97;13.13;;;;;;;;;;5261393;28;20090;-74
2024/01/20 02:55:00;;;;;;;26.43;14.53;;;;;;;;;;5261812;28;20029;-74
2024/01/20 02:57:32;;;;;;;30.93;14.63;;;;;;;;;;5262038;28;20048;-73
2024/01/20 03:00:07;;;;;;;29.93;14.90;;;;;;;;;;5260978;28;20056;-74
2024/01/20 03:02:39;;;;;;;24.87;14.63;;;;;;;;;;5261678;28;20388;-74
2024/01/20 03:05:11;;;;;;;29.43;14.67;;;;;;;;;;5262022;28;20020;-73
2024/01/20 03:07:42;;;;;;;28.53;15.10;;;;;;;;;;5261037;28;20012;-74
2024/01/20 03:10:13;;;;;;;27.27;15.37;;;;;;;;;;5262015;28;20028;-73
2024/01/20 03:12:44;;;;;;;28.33;14.63;;;;;;;;;;5261626;28;20041;-74
2024/01/20 03:15:16;;;;;;;33.17;16.37;;;;;;;;;;5261177;28;20024;-74
2024/01/20 03:17:47;;;;;;;27.00;14.90;;;;;;;;;;5261442;28;20025;-74
2024/01/20 03:20:18;;;;;;;27.10;15.03;;;;;;;;;;5260504;28;20029;-75
2024/01/20 03:22:49;;;;;;;26.03;13.83;;;;;;;;;;5261367;28;20444;-73
2024/01/20 03:25:20;;;;;;;29.30;14.10;;;;;;;;;;5261482;28;20078;-73
2024/01/20 03:27:54;;;;;;;27.70;14.30;;;;;;;;;;5260711;28;20075;-73
2024/01/20 03:30:25;;;;;;;27.70;15.20;;;;;;;;;;5261317;28;20365;-74
2024/01/20 03:32:57;;;;;;;27.00;15.63;;;;;;;;;;5261674;28;20021;-74
2024/01/20 03:35:29;;;;;;;27.87;14.23;;;;;;;;;;5260640;28;20013;-74
2024/01/20 03:38:00;;;;;;;27.80;14.77;;;;;;;;;;5261390;28;20017;-74
2024/01/20 03:40:31;;;;;;;29.73;15.97;;;;;;;;;;5261152;28;20028;-74
2024/01/20 03:43:02;;;;;;;28.77;15.17;;;;;;;;;;5260294;28;20070;-74
2024/01/20 03:45:33;;;;;;;24.90;13.73;;;;;;;;;;5261352;28;20028;-74
2024/01/20 03:48:04;;;;;;;26.93;13.90;;;;;;;;;;5260999;28;20049;-74
2024/01/20 03:50:36;;;;;;;23.97;12.37;;;;;;;;;;5260389;28;20021;-74
2024/01/20 03:53:07;;;;;;;29.20;15.10;;;;;;;;;;5260883;28;20053;-74
2024/01/20 03:55:38;;;;;;;23.00;13.00;;;;;;;;;;5260590;28;20044;-74
2024/01/20 03:58:11;;;;;;;28.47;14.60;;;;;;;;;;5261188;28;20040;-74
2024/01/20 04:00:43;;;;;;;24.83;13.53;;;;;;;;;;5261026;28;20378;-74
2024/01/20 04:03:14;;;;;;;25.80;14.77;;;;;;;;;;5259744;28;20037;-74
2024/01/20 04:05:47;;;;;;;28.90;14.70;;;;;;;;;;5260725;28;20024;-74
2024/01/20 04:08:18;;;;;;;27.03;14.40;;;;;;;;;;5260861;28;20033;-74
2024/01/20 04:10:49;;;;;;;31.70;16.40;;;;;;;;;;5259834;28;20024;-74
2024/01/20 04:13:21;;;;;;;25.83;14.57;;;;;;;;;;5260703;28;20021;-74
2024/01/20 04:15:53;;;;;;;23.73;13.90;;;;;;;;;;5260838;28;20016;-74
2024/01/20 04:18:24;;;;;;;24.57;13.73;;;;;;;;;;5258813;28;20035;-74
2024/01/20 04:20:55;;;;;;;23.17;13.40;;;;;;;;;;5260948;28;20025;-74
2024/01/20 04:23:27;;;;;;;26.40;13.77;;;;;;;;;;5260059;28;20039;-74
2024/01/20 04:25:58;;;;;;;27.80;14.03;;;;;;;;;;5260749;28;20013;-74
2024/01/20 04:28:29;;;;;;;27.17;13.93;;;;;;;;;;5260592;28;20576;-74
2024/01/20 04:31:00;;;;;;;25.87;13.37;;;;;;;;;;5259666;28;20052;-74
2024/01/20 04:33:33;;;;;;;29.50;14.73;;;;;;;;;;5260868;28;20078;-74
2024/01/20 04:36:05;;;;;;;26.23;14.10;;;;;;;;;;5260750;28;20047;-73
2024/01/20 04:38:36;;;;;;;26.50;13.87;;;;;;;;;;5259540;28;20025;-73
2024/01/20 04:41:07;;;;;;;27.63;15.17;;;;;;;;;;5260249;28;20108;-73
2024/01/20 04:43:38;;;;;;;24.83;13.60;;;;;;;;;;5260583;28;20033;-74
2024/01/20 04:46:09;;;;;;;27.10;15.40;;;;;;;;;;5259549;28;20021;-74
2024/01/20 04:48:41;;;;;;;24.20;12.73;;;;;;;;;;5260371;28;20103;-73
2024/01/20 04:51:12;;;;;;;24.83;13.47;;;;;;;;;;5260280;28;20013;-73
2024/01/20 04:53:43;;;;;;;29.10;13.83;;;;;;;;;;5259479;28;20158;-73
2024/01/20 04:56:19;;;;;;;24.57;14.20;;;;;;;;;;5260352;28;20028;-73
2024/01/20 04:58:55;;;;;;;25.63;14.10;;;;;;;;;;5259693;28;20443;-73
2024/01/20 05:01:26;;;;;;;22.40;12.27;;;;;;;;;;5259815;28;20135;-73
2024/01/20 05:03:58;;;;;;;25.20;14.00;;;;;;;;;;5260228;28;20048;-75
2024/01/20 05:06:29;;;;;;;30.53;14.97;;;;;;;;;;5259577;28;20013;-74
2024/01/20 05:09:00;;;;;;;30.03;16.07;;;;;;;;;;5260179;28;20032;-74
2024/01/20 05:11:31;;;;;;;25.00;13.93;;;;;;;;;;5260175;28;20056;-74
2024/01/20 05:14:03;;;;;;;23.27;13.60;;;;;;;;;;5259347;28;20556;-74
2024/01/20 05:16:34;;;;;;;24.77;14.17;;;;;;;;;;5260274;28;20384;-74
2024/01/20 05:19:05;;;;;;;25.13;14.17;;;;;;;;;;5260354;28;20124;-74
2024/01/20 05:21:37;;;;;;;27.03;15.10;;;;;;;;;;5259487;28;20034;-74
2024/01/20 05:24:10;;;;;;;26.00;14.57;;;;;;;;;;5260057;28;20029;-74
2024/01/20 05:26:41;;;;;;;24.37;13.60;;;;;;;;;;5259095;28;20025;-76
2024/01/20 05:29:12;;;;;;;24.87;14.53;;;;;;;;;;5260173;28;20373;-74
2024/01/20 05:31:43;;;;;;;22.93;13.60;;;;;;;;;;5262391;28;20017;-75
2024/01/20 05:34:14;;;;;;;23.77;12.87;;;;;;;;;;5263050;28;20059;-74
2024/01/20 05:36:45;;;;;;;21.80;12.75;;;;;;;;;;5263702;28;20021;-74
2024/01/20 05:39:17;;;;;;;21.73;12.47;;;;;;;;;;5263669;28;20078;-75
2024/01/20 05:41:48;;;;;;;20.93;11.43;;;;;;;;;;5262763;28;20490;-74
2024/01/20 05:44:19;;;;;;;21.58;12.68;;;;;;;;;;5263664;28;20048;-74
2024/01/20 05:46:50;;;;;;;24.33;13.53;;;;;;;;;;5263543;28;20025;-75
2024/01/20 05:49:22;;;;;;;23.00;13.97;;;;;;;;;;5262453;28;20490;-75
2024/01/20 05:51:53;;;;;;;22.97;13.37;;;;;;;;;;5263414;28;20484;-75
2024/01/20 05:54:24;;;;;;;22.03;12.63;;;;;;;;;;5263437;28;20494;-75
2024/01/20 05:56:55;;;;;;;21.07;12.23;;;;;;;;;;5263126;28;20029;-76
2024/01/20 05:59:26;;;;;;;24.90;13.87;;;;;;;;;;5263221;28;20025;-75
2024/01/20 06:01:58;;;;;;;24.37;13.03;;;;;;;;;;5262675;28;20025;-75
2024/01/20 06:04:29;;;;;;;19.73;11.87;;;;;;;;;;5263169;28;20369;-76
2024/01/20 06:07:00;;;;;;;22.23;12.37;;;;;;;;;;5263220;28;20021;-75
2024/01/20 06:09:31;;;;;;;21.00;12.53;;;;;;;;;;5262834;28;20031;-75
2024/01/20 06:12:02;;;;;;;23.00;12.57;;;;;;;;;;5262929;28;20021;-75
2024/01/20 06:14:34;;;;;;;21.40;13.37;;;;;;;;;;5262878;28;20039;-75
2024/01/20 06:17:06;;;;;;;20.73;11.60;;;;;;;;;;5262041;28;20016;-75
2024/01/20 06:19:37;;;;;;;22.00;12.87;;;;;;;;;;5262732;28;20372;-75
2024/01/20 06:22:08;;;;;;;24.13;13.83;;;;;;;;;;5262963;28;20013;-75
2024/01/20 06:24:39;;;;;;;24.83;14.50;;;;;;;;;;5262212;28;20124;-75
2024/01/20 06:27:10;;;;;;;20.93;12.30;;;;;;;;;;5262537;28;20035;-74
2024/01/20 06:29:42;;;;;;;20.60;12.37;;;;;;;;;;5262362;28;20021;-74
2024/01/20 06:32:13;;;;;;;21.40;12.17;;;;;;;;;;5261755;28;20447;-75
2024/01/20 06:34:44;;;;;;;27.03;13.80;;;;;;;;;;5262641;28;20028;-75
2024/01/20 06:37:15;;;;;;;23.03;12.63;;;;;;;;;;5261813;28;20033;-75
2024/01/20 06:39:46;;;;;;;25.10;13.70;;;;;;;;;;5262544;28;20020;-75
2024/01/20 06:42:18;;;;;;;19.70;12.40;;;;;;;;;;5262091;28;20079;-74
2024/01/20 06:44:49;;;;;;;23.80;12.63;;;;;;;;;;5261732;28;20041;-75
2024/01/20 06:47:20;;;;;;;22.80;12.70;;;;;;;;;;5262254;28;20021;-75
2024/01/20 06:49:53;;;;;;;21.83;13.07;;;;;;;;;;5262307;28;20021;-74
2024/01/20 06:52:24;;;;;;;22.90;12.93;;;;;;;;;;5260999;28;20048;-75
2024/01/20 06:54:56;;;;;;;20.57;12.67;;;;;;;;;;5262645;28;20029;-75
2024/01/20 06:57:29;;;;;;;21.60;12.87;;;;;;;;;;5262295;28;20021;-75
2024/01/20 07:00:00;;;;;;;20.77;12.73;;;;;;;;;;5261322;28;20032;-75
2024/01/20 07:02:33;;;;;;;22.47;12.73;;;;;;;;;;5261841;28;20032;-76
2024/01/20 07:05:04;;;;;;;19.80;12.70;;;;;;;;;;5261670;28;20033;-76
2024/01/20 07:07:36;;;;;;;16.50;11.20;;;;;;;;;;5261540;28;20017;-76
2024/01/20 07:10:08;;;;;;;21.73;12.70;;;;;;;;;;5261711;28;20025;-75
2024/01/20 07:12:40;;;;;;;16.53;10.50;;;;;;;;;;5261158;28;20134;-76
2024/01/20 07:15:11;;;;;;;19.53;12.33;;;;;;;;;;5261546;28;20045;-75
2024/01/20 07:17:42;;;;;;;24.17;11.97;;;;;;;;;;5261634;28;20021;-75
2024/01/20 07:20:13;;;;;;;22.93;13.27;;;;;;;;;;5261135;28;20074;-75
2024/01/20 07:22:44;;;;;;;21.37;12.97;;;;;;;;;;5262131;28;20059;-76
2024/01/20 07:25:16;;;;;;;20.37;12.73;;;;;;;;;;5261542;28;20032;-76
2024/01/20 07:27:48;;;;;;;22.93;13.90;;;;;;;;;;5260540;28;20056;-75
2024/01/20 07:30:19;;;;;;;20.50;12.27;;;;;;;;;;5261055;28;20029;-75
2024/01/20 07:32:50;;;;;;;24.30;14.60;;;;;;;;;;5261108;28;20476;-75
2024/01/20 07:35:21;;;;;;;23.43;13.07;;;;;;;;;;5260508;28;20457;-75
2024/01/20 07:37:52;;;;;;;20.67;13.30;;;;;;;;;;5261497;28;20167;-76
2024/01/20 07:40:23;;;;;;;22.03;12.57;;;;;;;;;;5260142;28;20024;-76
2024/01/20 07:42:55;;;;;;;21.70;12.97;;;;;;;;;;5261673;28;20388;-76
2024/01/20 07:45:30;;;;;;;20.07;13.00;;;;;;;;;;5261324;28;20025;-74
2024/01/20 07:48:02;;;;;;;21.43;12.60;;;;;;;;;;5260337;28;20021;-74
2024/01/20 07:50:33;;;;;;;19.67;12.97;;;;;;;;;;5261015;28;20036;-74
2024/01/20 07:53:04;;;;;;;22.87;13.87;;;;;;;;;;5260165;28;20107;-74
2024/01/20 07:55:35;;;;;;;21.30;13.93;;;;;;;;;;5260070;28;20028;-75
2024/01/20 07:58:06;;;;;;;23.17;13.10;;;;;;;;;;5260980;28;20476;-75
2024/01/20 08:00:38;;;;;;;22.70;13.10;;;;;;;;;;5261013;28;20060;-75
2024/01/20 08:03:09;;;;;;;22.27;14.70;;;;;;;;;;5259707;28;20078;-76
2024/01/20 08:05:40;;;;;;;19.73;12.63;;;;;;;;;;5261136;28;20712;-74
2024/01/20 08:08:11;;;;;;;25.60;15.00;;;;;;;;;;5260947;28;20029;-73
2024/01/20 08:10:42;;;;;;;23.85;13.50;;;;;;;;;;5260342;28;20104;-74
2024/01/20 08:13:13;;;;;;;23.53;14.40;;;;;;;;;;5260793;28;20025;-73
2024/01/20 08:15:45;;;;;;;21.93;13.90;;;;;;;;;;5259882;28;20194;-74
2024/01/20 08:18:16;;;;;;;22.70;12.80;;;;;;;;;;5260808;28;20021;-73
2024/01/20 08:20:47;;;;;;;25.17;14.40;;;;;;;;;;5260962;28;20124;-73
2024/01/20 08:23:18;;;;;;;22.90;13.70;;;;;;;;;;5259812;28;20037;-75
2024/01/20 08:25:50;;;;;;;25.20;14.73;;;;;;;;;;5260807;28;20506;-75
2024/01/20 08:28:21;;;;;;;25.63;14.47;;;;;;;;;;5260315;28;20375;-74
2024/01/20 08:30:52;;;;;;;23.27;13.73;;;;;;;;;;5260222;28;20017;-75
2024/01/20 08:33:23;;;;;;;21.80;13.33;;;;;;;;;;5260329;28;20024;-75
2024/01/20 08:35:54;;;;;;;22.80;14.23;;;;;;;;;;5260638;28;20024;-75
2024/01/20 08:38:25;;;;;;;21.33;12.87;;;;;;;;;;5259284;28;20028;-74
2024/01/20 08:40:57;;;;;;;20.77;13.13;;;;;;;;;;5260650;28;20516;-73
2024/01/20 08:43:28;;;;;;;23.77;14.80;;;;;;;;;;5260406;28;20017;-74
2024/01/20 08:45:59;;;;;;;20.30;11.80;;;;;;;;;;5259755;28;20044;-73
2024/01/20 08:48:30;;;;;;;20.07;12.80;;;;;;;;;;5260305;28;20031;-74
2024/01/20 08:51:02;;;;;;;23.33;14.07;;;;;;;;;;5259479;28;20029;-74
2024/01/20 08:53:33;;;;;;;22.27;14.17;;;;;;;;;;5259770;28;20036;-73
2024/01/20 08:56:04;;;;;;;22.53;13.57;;;;;;;;;;5260530;28;20055;-78
2024/01/20 08:58:36;;;;;;;22.73;13.77;;;;;;;;;;5259455;28;20017;-77
2024/01/20 09:01:08;;;;;;;21.93;12.90;;;;;;;;;;5260010;28;20468;-74
2024/01/20 09:03:39;;;;;;;18.70;12.60;;;;;;;;;;5258009;28;20064;-74
2024/01/20 09:06:11;;;;;;;18.67;11.50;;;;;;;;;;5260585;28;20067;-74
2024/01/20 09:08:43;;;;;;;18.03;11.93;;;;;;;;;;5262056;28;20048;-74
2024/01/20 09:11:14;;;;;;;17.27;12.03;;;;;;;;;;5261951;28;20021;-74
2024/01/20 09:13:46;;;;;;;20.50;13.47;;;;;;;;;;5261020;28;20040;-74
2024/01/20 09:16:17;;;;;;;20.73;13.43;;;;;;;;;;5261354;28;20029;-74
2024/01/20 09:18:49;;;;;;;18.97;12.70;;;;;;;;;;5262466;28;20036;-74
2024/01/20 09:21:20;;;;;;;21.97;13.83;;;;;;;;;;5264014;28;20025;-75
2024/01/20 09:23:51;;;;;;;19.63;13.57;;;;;;;;;;5263628;28;20060;-73
2024/01/20 09:26:22;;;;;;;19.00;12.80;;;;;;;;;;5262416;28;20049;-73
2024/01/20 09:28:53;;;;;;;21.67;13.53;;;;;;;;;;5264272;28;20033;-74
2024/01/20 09:31:25;;;;;;;20.80;12.83;;;;;;;;;;5263367;28;20021;-73
2024/01/20 09:33:56;;;;;;;21.60;14.67;;;;;;;;;;5263292;28;20021;-73
2024/01/20 09:36:27;;;;;;;20.80;14.07;;;;;;;;;;5263376;28;20021;-74
2024/01/20 09:38:59;;;;;;;21.47;12.63;;;;;;;;;;5263233;28;20048;-73
2024/01/20 09:41:30;;;;;;;21.27;13.57;;;;;;;;;;5262479;28;20489;-74
2024/01/20 09:44:02;;;;;;;24.77;13.73;;;;;;;;;;5263270;28;20383;-73
2024/01/20 09:46:34;;;;;;;19.93;13.37;;;;;;;;;;5263143;28;20017;-74
2024/01/20 09:49:05;;;;;;;22.97;14.07;;;;;;;;;;5262419;28;20025;-74
2024/01/20 09:51:39;;;;;;;20.97;13.63;;;;;;;;;;5263117;28;20552;-74
2024/01/20 09:54:11;;;;;;;26.00;14.33;;;;;;;;;;5262707;28;20039;-74
2024/01/20 09:56:42;;;;;;;21.23;13.63;;;;;;;;;;5263496;28;20025;-74
2024/01/20 09:59:14;;;;;;;24.50;14.73;;;;;;;;;;5263076;28;20025;-74
2024/01/20 10:01:46;;;;;;;19.27;13.57;;;;;;;;;;5262320;28;20017;-74
2024/01/20 10:04:17;;;;;;;21.30;13.90;;;;;;;;;;5262789;28;20039;-74
2024/01/20 10:06:50;;;;;;;23.07;13.23;;;;;;;;;;5263201;28;20044;-75
2024/01/20 10:09:22;;;;;;;19.87;12.40;;;;;;;;;;5262108;28;20422;-74
2024/01/20 10:11:53;;;;;;;21.93;13.00;;;;;;;;;;5263328;28;20380;-75
2024/01/20 10:14:25;;;;;;;19.97;12.63;;;;;;;;;;5262767;28;20017;-74
2024/01/20 10:16:56;;;;;;;19.23;12.00;;;;;;;;;;5261572;28;20029;-74
2024/01/20 10:19:27;;;;;;;23.03;14.27;;;;;;;;;;5262987;28;20021;-74
2024/01/20 10:21:58;;;;;;;18.53;12.17;;;;;;;;;;5262840;28;20021;-74
2024/01/20 10:24:29;;;;;;;18.33;12.07;;;;;;;;;;5262010;28;20032;-74
2024/01/20 10:27:02;;;;;;;18.37;11.40;;;;;;;;;;5262539;28;20017;-74
2024/01/20 10:29:33;;;;;;;17.63;11.37;;;;;;;;;;5261895;28;20017;-75
2024/01/20 10:32:05;;;;;;;19.17;10.57;;;;;;;;;;5262429;28;20017;-74
2024/01/20 10:34:36;;;;;;;20.00;12.23;;;;;;;;;;5262572;28;20460;-74
2024/01/20 10:37:13;;;;;;;17.17;12.00;;;;;;;;;;5261683;28;20027;-74
2024/01/20 10:39:45;;;;;;;19.97;11.53;;;;;;;;;;5262103;28;20017;-74
2024/01/20 10:42:16;;;;;;;17.00;10.67;;;;;;;;;;5262487;28;20430;-75
2024/01/20 10:44:54;;;;;;;15.43;10.53;;;;;;;;;;5261564;28;20061;-74
2024/01/20 10:47:39;;;;;;;16.43;10.47;;;;;;;;;;5262005;28;20020;-74
2024/01/20 10:50:10;;;;;;;17.93;10.90;;;;;;;;;;5261608;28;20480;-74
2024/01/20 10:52:41;;;;;;;16.90;10.77;;;;;;;;;;5261766;28;20041;-74
2024/01/20 10:55:13;;;;;;;18.57;11.07;;;;;;;;;;5262167;28;20032;-74
2024/01/20 10:57:47;;;;;;;14.83;10.07;;;;;;;;;;5261441;28;20021;-74
2024/01/20 11:00:19;;;;;;;19.57;11.83;;;;;;;;;;5262025;28;20159;-75
2024/01/20 11:02:50;;;;;;;18.03;11.17;;;;;;;;;;5262021;28;20458;-74
2024/01/20 11:05:25;;;;;;;18.10;9.93;;;;;;;;;;5260731;28;20036;-74
2024/01/20 11:07:57;;;;;;;20.10;11.70;;;;;;;;;;5261862;28;20021;-75
2024/01/20 11:10:28;;;;;;;19.53;11.97;;;;;;;;;;5261602;28;20089;-74
2024/01/20 11:13:03;;;;;;;17.23;10.47;;;;;;;;;;5260736;28;20028;-74
2024/01/20 11:15:34;;;;;;;19.63;12.87;;;;;;;;;;5261740;28;20013;-74
2024/01/20 11:18:15;;;;;;;21.77;13.43;;;;;;;;;;5261482;28;20027;-74
2024/01/20 11:20:56;;;;;;;23.83;13.10;;;;;;;;;;5260864;28;20017;-74
2024/01/20 11:23:27;;;;;;;19.23;11.23;;;;;;;;;;5261293;28;20029;-75
2024/01/20 11:26:09;;;;;;;16.23;10.90;;;;;;;;;;5261157;28;20020;-74
2024/01/20 11:28:43;;;;;;;22.77;12.53;;;;;;;;;;5261360;28;20074;-74
2024/01/20 11:31:17;;;;;;;18.57;11.97;;;;;;;;;;5261246;28;20476;-74
2024/01/20 11:33:49;;;;;;;16.63;10.93;;;;;;;;;;5260941;28;20365;-73
2024/01/20 11:36:20;;;;;;;20.13;11.70;;;;;;;;;;5261357;28;20024;-75
2024/01/20 11:38:51;;;;;;;19.43;12.37;;;;;;;;;;5261222;28;20021;-74
2024/01/20 11:41:23;;;;;;;19.37;12.10;;;;;;;;;;5259703;28;20070;-74
2024/01/20 11:43:54;;;;;;;18.50;11.13;;;;;;;;;;5261199;28;20100;-73
2024/01/20 11:46:25;;;;;;;19.70;11.77;;;;;;;;;;5260595;28;20013;-73
2024/01/20 11:48:56;;;;;;;22.83;13.90;;;;;;;;;;5260853;28;20108;-72
2024/01/20 11:51:28;;;;;;;21.60;12.73;;;;;;;;;;5260889;28;20062;-78
2024/01/20 11:53:59;;;;;;;21.50;13.87;;;;;;;;;;5260454;28;20020;-74
2024/01/20 11:56:30;;;;;;;20.57;13.60;;;;;;;;;;5260904;28;20021;-74
2024/01/20 11:59:01;;;;;;;21.40;13.30;;;;;;;;;;5261191;28;20027;-75
2024/01/20 12:01:32;;;;;;;22.83;13.37;;;;;;;;;;5260151;28;20021;-75
2024/01/20 12:04:03;;;;;;;22.07;12.47;;;;;;;;;;5260953;28;20051;-76
2024/01/20 12:06:35;;;;;;;18.80;11.57;;;;;;;;;;5260789;28;20094;-75
2024/01/20 12:09:06;;;;;;;20.20;12.77;;;;;;;;;;5259875;28;20024;-75
2024/01/20 12:11:37;;;;;;;22.17;13.63;;;;;;;;;;5260841;28;20017;-74
2024/01/20 12:14:08;;;;;;;22.10;12.97;;;;;;;;;;5260538;28;20035;-75
2024/01/20 12:16:39;;;;;;;22.17;14.03;;;;;;;;;;5259821;28;20029;-76
2024/01/20 12:19:11;;;;;;;23.10;14.67;;;;;;;;;;5260743;28;20551;-74
2024/01/20 12:21:42;;;;;;;22.43;14.63;;;;;;;;;;5259607;28;20031;-75
2024/01/20 12:24:14;;;;;;;23.83;14.57;;;;;;;;;;5260262;28;20029;-75
2024/01/20 12:26:46;;;;;;;18.90;13.00;;;;;;;;;;5260783;28;20059;-76
2024/01/20 12:29:17;;;;;;;20.40;13.37;;;;;;;;;;5259929;28;20020;-76
2024/01/20 12:31:48;;;;;;;15.90;10.13;;;;;;;;;;5260618;28;20112;-75
2024/01/20 12:34:20;;;;;;;17.47;11.10;;;;;;;;;;5260244;28;20031;-74
2024/01/20 12:36:52;;;;;;;14.70;9.13;;;;;;;;;;5259960;28;20010;-75
2024/01/20 12:39:24;;;;;;;12.37;8.60;;;;;;;;;;5260498;28;20021;-73
2024/01/20 12:41:55;;;;;;;15.47;8.73;;;;;;;;;;5265052;28;20028;-75
2024/01/20 12:44:26;;;;;;;12.60;7.63;;;;;;;;;;5263396;28;20039;-76
2024/01/20 12:46:57;;;;;;;13.17;8.37;;;;;;;;;;5263591;28;20061;-75
2024/01/20 12:49:30;;;;;;;10.83;6.90;;;;;;;;;;5262626;28;20021;-76
2024/01/20 12:52:03;;;;;;;12.13;7.40;;;;;;;;;;5261118;28;20045;-75
2024/01/20 12:54:34;;;;;;;10.13;6.97;;;;;;;;;;5262181;28;20021;-76
2024/01/20 12:57:05;;;;;;;12.47;7.93;;;;;;;;;;5261902;28;20024;-75
2024/01/20 12:59:36;;;;;;;10.63;7.40;;;;;;;;;;5262189;28;20059;-76
2024/01/20 13:02:07;;;;;;;10.90;7.10;;;;;;;;;;5262758;28;20507;-76
2024/01/20 13:04:41;;;;;;;11.03;7.17;;;;;;;;;;5261849;28;20053;-76
2024/01/20 13:07:13;;;;;;;11.83;8.00;;;;;;;;;;5264041;28;20035;-75
2024/01/20 13:09:45;;;;;;;10.57;7.07;;;;;;;;;;5263761;28;20096;-75
2024/01/20 13:12:16;;;;;;;10.03;6.73;;;;;;;;;;5263088;28;20425;-76
2024/01/20 13:14:47;;;;;;;9.90;6.27;;;;;;;;;;5264161;28;20103;-74
2024/01/20 13:17:19;;;;;;;10.03;6.43;;;;;;;;;;5264266;28;20021;-76
2024/01/20 13:19:50;;;;;;;10.83;6.27;;;;;;;;;;5262825;28;20021;-74
2024/01/20 13:22:21;;;;;;;10.87;7.07;;;;;;;;;;5263266;28;20017;-74
2024/01/20 13:24:53;;;;;;;10.63;7.57;;;;;;;;;;5264036;28;20036;-75
2024/01/20 13:27:24;;;;;;;15.40;9.80;;;;;;;;;;5262996;28;20017;-75
2024/01/20 13:29:56;;;;;;;15.00;9.13;;;;;;;;;;5263809;28;20079;-73
2024/01/20 13:32:27;;;;;;;14.53;9.27;;;;;;;;;;5262423;28;20059;-73
2024/01/20 13:34:58;;;;;;;15.10;9.47;;;;;;;;;;5264000;28;20384;-74
2024/01/20 13:37:29;;;;;;;13.40;8.27;;;;;;;;;;5263702;28;20035;-74
2024/01/20 13:40:03;;;;;;;15.50;10.00;;;;;;;;;;5262772;28;20013;-74
2024/01/20 13:42:35;;;;;;;14.67;9.20;;;;;;;;;;5263250;28;20464;-74
2024/01/20 13:45:07;;;;;;;16.27;9.80;;;;;;;;;;5263566;28;20040;-74
2024/01/20 13:47:38;;;;;;;16.53;9.43;;;;;;;;;;5262646;28;20070;-75
2024/01/20 13:50:10;;;;;;;13.23;8.60;;;;;;;;;;5259327;28;20017;-74
2024/01/20 13:52:41;;;;;;;13.10;7.57;;;;;;;;;;5261355;28;20475;-74
2024/01/20 13:55:13;;;;;;;13.70;8.90;;;;;;;;;;5262071;28;20021;-74
2024/01/20 13:57:44;;;;;;;12.10;7.90;;;;;;;;;;5262857;28;20112;-74
2024/01/20 14:00:15;;;;;;;11.90;8.50;;;;;;;;;;5262192;28;20091;-74
2024/01/20 14:02:47;;;;;;;13.47;8.13;;;;;;;;;;5262910;28;20380;-73
2024/01/20 14:05:18;;;;;;;12.30;8.03;;;;;;;;;;5262273;28;20037;-74
2024/01/20 14:07:49;;;;;;;12.27;8.07;;;;;;;;;;5261584;28;20029;-74
2024/01/20 14:10:21;;;;;;;11.47;8.03;;;;;;;;;;5262535;28;20460;-74
2024/01/20 14:12:52;;;;;;;11.80;7.77;;;;;;;;;;5262752;28;20017;-74
2024/01/20 14:15:23;;;;;;;12.00;7.43;;;;;;;;;;5261950;28;20024;-73
2024/01/20 14:17:55;;;;;;;11.23;6.73;;;;;;;;;;5263438;28;20028;-73
2024/01/20 14:20:26;;;;;;;10.00;6.70;;;;;;;;;;5262048;28;20028;-73
2024/01/20 14:22:57;;;;;;;11.00;7.13;;;;;;;;;;5261897;28;20024;-73
2024/01/20 14:25:28;;;;;;;11.00;6.60;;;;;;;;;;5262663;28;20403;-73
2024/01/20 14:28:00;;;;;;;13.13;7.67;;;;;;;;;;5262553;28;20021;-73
2024/01/20 14:30:32;;;;;;;10.27;7.23;;;;;;;;;;5261625;28;20021;-73
2024/01/20 14:33:04;;;;;;;11.53;7.57;;;;;;;;;;5262453;28;20364;-73
2024/01/20 14:35:35;;;;;;;11.90;8.40;;;;;;;;;;5261010;28;20067;-73
2024/01/20 14:38:06;;;;;;;13.77;8.47;;;;;;;;;;5262333;28;20090;-73
2024/01/20 14:40:37;;;;;;;14.57;8.60;;;;;;;;;;5261624;28;20151;-73
2024/01/20 14:43:09;;;;;;;13.50;9.00;;;;;;;;;;5260953;28;20025;-72